Time;durP1;ratioP1;P1;durP2;ratioP2;P2;SDS_P1;SDS_P2;PMS_P1;PMS_P2;Temp;Humidity;BMP_temperature;BMP_pressure;BME280_temperature;BME280_humidity;BME280_pressure;Samples;Min_cycle;Max_cycle;Signal;HPM_P1;HPM_P2
2023/10/25 00:00:38;;;;;;;36.73;17.77;;;;;;;;;;5015627;28;20709;-81
2023/10/25 00:03:04;;;;;;;20.23;11.50;;;;;;;;;;4997134;28;20246;-82
2023/10/25 00:05:33;;;;;;;13.43;9.40;;;;;;;;;;5015346;28;20228;-82
2023/10/25 00:07:59;;;;;;;12.20;8.37;;;;;;;;;;5012476;28;20223;-83
2023/10/25 00:10:26;;;;;;;10.10;7.87;;;;;;;;;;5005724;28;20210;-82
2023/10/25 00:12:52;;;;;;;11.10;7.90;;;;;;;;;;5004543;28;20644;-82
2023/10/25 00:15:18;;;;;;;9.20;7.40;;;;;;;;;;5003785;28;20233;-83
2023/10/25 00:17:44;;;;;;;7.87;7.07;;;;;;;;;;4980540;28;20190;-82
2023/10/25 00:20:10;;;;;;;9.17;6.70;;;;;;;;;;5002418;28;20767;-82
2023/10/25 00:22:36;;;;;;;8.23;6.53;;;;;;;;;;5007562;28;20574;-81
2023/10/25 00:25:02;;;;;;;7.37;6.57;;;;;;;;;;4987225;28;20195;-81
2023/10/25 00:27:29;;;;;;;9.93;7.17;;;;;;;;;;4999329;28;20206;-82
2023/10/25 00:29:55;;;;;;;11.00;8.00;;;;;;;;;;5007811;28;20396;-82
2023/10/25 00:32:21;;;;;;;9.73;6.73;;;;;;;;;;5006636;28;20202;-82
2023/10/25 00:34:47;;;;;;;8.87;6.53;;;;;;;;;;5003455;28;20214;-82
2023/10/25 00:37:13;;;;;;;8.63;7.03;;;;;;;;;;5003406;28;20571;-82
2023/10/25 00:39:39;;;;;;;7.07;6.37;;;;;;;;;;4999544;28;20885;-82
2023/10/25 00:42:06;;;;;;;9.97;6.30;;;;;;;;;;4982519;28;20187;-81
2023/10/25 00:44:32;;;;;;;8.33;6.30;;;;;;;;;;4973355;28;20176;-81
2023/10/25 00:46:58;;;;;;;7.57;6.77;;;;;;;;;;4990678;28;20183;-82
2023/10/25 00:49:25;;;;;;;7.93;6.17;;;;;;;;;;4986003;28;20235;-82
2023/10/25 00:51:52;;;;;;;6.30;5.70;;;;;;;;;;4977694;28;20246;-82
2023/10/25 00:54:19;;;;;;;7.23;5.87;;;;;;;;;;5021071;28;20195;-82
2023/10/25 00:56:46;;;;;;;6.40;5.70;;;;;;;;;;4985756;28;20520;-81
2023/10/25 00:59:12;;;;;;;6.87;6.10;;;;;;;;;;4991941;28;20223;-82
2023/10/25 01:01:41;;;;;;;6.80;6.10;;;;;;;;;;5005269;28;20229;-82
2023/10/25 01:04:07;;;;;;;7.60;5.60;;;;;;;;;;4987988;28;20297;-81
2023/10/25 01:06:33;;;;;;;8.83;5.70;;;;;;;;;;4995901;28;20187;-82
2023/10/25 01:09:00;;;;;;;7.13;6.07;;;;;;;;;;4994654;28;20666;-82
2023/10/25 01:11:26;;;;;;;6.13;5.53;;;;;;;;;;5006730;28;20796;-83
2023/10/25 01:13:52;;;;;;;6.60;5.77;;;;;;;;;;5005052;28;20179;-82
2023/10/25 01:16:19;;;;;;;8.27;6.60;;;;;;;;;;4994014;28;20235;-81
2023/10/25 01:18:45;;;;;;;7.27;6.30;;;;;;;;;;4992049;28;20199;-81
2023/10/25 01:21:12;;;;;;;6.70;6.10;;;;;;;;;;4991793;28;20237;-82
2023/10/25 01:23:38;;;;;;;7.03;6.33;;;;;;;;;;4999751;28;20186;-83
2023/10/25 01:26:04;;;;;;;6.77;5.77;;;;;;;;;;4994239;28;20187;-82
2023/10/25 01:28:30;;;;;;;7.77;6.20;;;;;;;;;;4990677;28;20195;-83
2023/10/25 01:30:56;;;;;;;7.13;6.07;;;;;;;;;;4976095;28;20728;-82
2023/10/25 01:33:22;;;;;;;7.23;6.00;;;;;;;;;;5005251;28;20801;-82
2023/10/25 01:35:50;;;;;;;6.83;5.80;;;;;;;;;;5003227;28;20215;-82
2023/10/25 01:38:16;;;;;;;7.00;6.30;;;;;;;;;;5005660;28;20632;-82
2023/10/25 01:40:42;;;;;;;9.07;6.03;;;;;;;;;;4986596;28;20313;-83
2023/10/25 01:43:09;;;;;;;7.30;6.20;;;;;;;;;;5014586;28;20191;-82
2023/10/25 01:45:35;;;;;;;7.10;6.00;;;;;;;;;;4994785;28;20183;-82
2023/10/25 01:48:01;;;;;;;7.10;5.70;;;;;;;;;;4997084;28;20592;-81
2023/10/25 01:50:27;;;;;;;7.70;6.27;;;;;;;;;;4994886;28;20678;-82
2023/10/25 01:52:53;;;;;;;6.43;5.83;;;;;;;;;;4990877;28;20187;-82
2023/10/25 01:55:19;;;;;;;6.20;5.60;;;;;;;;;;5009195;28;20213;-82
2023/10/25 01:57:46;;;;;;;6.43;5.83;;;;;;;;;;5012233;28;20187;-82
2023/10/25 02:00:12;;;;;;;5.97;5.37;;;;;;;;;;5005689;28;20212;-81
2023/10/25 02:02:42;;;;;;;6.70;6.00;;;;;;;;;;5006354;28;20175;-82
2023/10/25 02:05:08;;;;;;;6.97;6.20;;;;;;;;;;4992421;28;20214;-82
2023/10/25 02:07:35;;;;;;;6.13;5.50;;;;;;;;;;4994192;28;20206;-82
2023/10/25 02:10:01;;;;;;;6.57;5.50;;;;;;;;;;5011070;28;20217;-82
2023/10/25 02:12:29;;;;;;;6.10;5.20;;;;;;;;;;5009392;28;20214;-81
2023/10/25 02:14:56;;;;;;;5.67;5.17;;;;;;;;;;5000951;28;20242;-81
2023/10/25 02:17:22;;;;;;;6.10;5.20;;;;;;;;;;4991284;28;20717;-82
2023/10/25 02:19:48;;;;;;;5.70;5.17;;;;;;;;;;5005143;28;20223;-81
2023/10/25 02:22:14;;;;;;;5.87;5.27;;;;;;;;;;5025349;28;20182;-81
2023/10/25 02:24:40;;;;;;;6.03;5.00;;;;;;;;;;4990260;28;20195;-82
2023/10/25 02:27:06;;;;;;;5.50;4.93;;;;;;;;;;5002776;28;20187;-82
2023/10/25 02:29:33;;;;;;;5.53;5.03;;;;;;;;;;5009817;28;20671;-82
2023/10/25 02:31:59;;;;;;;5.47;4.90;;;;;;;;;;5005201;28;20183;-82
2023/10/25 02:34:25;;;;;;;5.40;4.90;;;;;;;;;;4991870;28;20201;-82
2023/10/25 02:36:51;;;;;;;5.63;5.13;;;;;;;;;;5004361;28;20562;-82
2023/10/25 02:39:17;;;;;;;6.80;5.00;;;;;;;;;;5003007;28;20199;-82
2023/10/25 02:41:44;;;;;;;5.60;5.10;;;;;;;;;;4986527;28;20196;-82
2023/10/25 02:44:10;;;;;;;4.97;4.47;;;;;;;;;;5000225;28;20184;-82
2023/10/25 02:46:37;;;;;;;5.27;4.77;;;;;;;;;;5001426;28;20187;-82
2023/10/25 02:49:03;;;;;;;5.70;4.67;;;;;;;;;;5002569;28;20242;-81
2023/10/25 02:51:29;;;;;;;5.63;5.00;;;;;;;;;;5005323;28;20187;-82
2023/10/25 02:53:55;;;;;;;5.10;4.60;;;;;;;;;;5006966;28;20786;-82
2023/10/25 02:56:22;;;;;;;6.93;5.23;;;;;;;;;;4990538;28;20256;-82
2023/10/25 02:58:48;;;;;;;4.50;4.10;;;;;;;;;;5003160;28;20203;-82
2023/10/25 03:01:21;;;;;;;5.10;4.63;;;;;;;;;;5012593;28;20566;-81
2023/10/25 03:03:47;;;;;;;5.77;4.57;;;;;;;;;;5007191;28;20647;-82
2023/10/25 03:06:13;;;;;;;5.40;4.90;;;;;;;;;;4995591;28;20211;-82
2023/10/25 03:08:39;;;;;;;5.30;4.40;;;;;;;;;;5005996;28;20697;-82
2023/10/25 03:11:06;;;;;;;5.93;4.90;;;;;;;;;;5008283;28;20195;-82
2023/10/25 03:13:32;;;;;;;5.37;4.83;;;;;;;;;;5005812;28;20195;-83
2023/10/25 03:15:58;;;;;;;5.10;4.60;;;;;;;;;;5008137;28;20210;-82
2023/10/25 03:18:24;;;;;;;6.40;4.80;;;;;;;;;;4992797;28;20175;-81
2023/10/25 03:20:51;;;;;;;4.90;4.37;;;;;;;;;;5001265;28;20180;-82
2023/10/25 03:23:17;;;;;;;4.93;4.10;;;;;;;;;;4994325;28;20218;-82
2023/10/25 03:25:43;;;;;;;5.27;4.40;;;;;;;;;;5009926;28;20700;-82
2023/10/25 03:28:09;;;;;;;5.23;4.20;;;;;;;;;;4991191;28;20206;-83
2023/10/25 03:30:36;;;;;;;5.13;4.03;;;;;;;;;;5010786;28;20230;-83
2023/10/25 03:33:03;;;;;;;4.80;4.20;;;;;;;;;;4978431;28;20194;-82
2023/10/25 03:35:29;;;;;;;5.63;4.40;;;;;;;;;;5003465;28;20675;-83
2023/10/25 03:37:55;;;;;;;5.83;4.80;;;;;;;;;;4997120;28;20209;-82
2023/10/25 03:40:22;;;;;;;7.43;4.60;;;;;;;;;;5010829;28;20274;-82
2023/10/25 03:42:48;;;;;;;4.73;4.27;;;;;;;;;;5013452;28;20340;-82
2023/10/25 03:45:14;;;;;;;4.70;4.30;;;;;;;;;;4984645;28;20182;-82
2023/10/25 03:47:40;;;;;;;5.80;4.40;;;;;;;;;;5011545;28;20206;-82
2023/10/25 03:50:07;;;;;;;5.30;4.80;;;;;;;;;;5008312;28;20577;-83
2023/10/25 03:52:33;;;;;;;5.53;4.67;;;;;;;;;;5011160;28;20183;-83
2023/10/25 03:54:59;;;;;;;4.80;4.30;;;;;;;;;;5004661;28;20206;-82
2023/10/25 03:57:26;;;;;;;4.90;4.40;;;;;;;;;;4993094;28;20191;-82
2023/10/25 03:59:52;;;;;;;5.80;4.40;;;;;;;;;;5007493;28;20201;-82
2023/10/25 04:02:18;;;;;;;7.73;5.23;;;;;;;;;;5006579;28;20183;-83
2023/10/25 04:04:45;;;;;;;5.43;4.93;;;;;;;;;;5008741;28;20631;-82
2023/10/25 04:07:14;;;;;;;8.13;5.30;;;;;;;;;;4993078;28;20241;-82
2023/10/25 04:09:40;;;;;;;6.27;5.40;;;;;;;;;;4992476;28;20281;-82
2023/10/25 04:12:12;;;;;;;5.20;4.70;;;;;;;;;;5003069;28;20179;-82
2023/10/25 04:14:47;;;;;;;6.37;4.77;;;;;;;;;;5006900;28;20186;-83
2023/10/25 04:17:14;;;;;;;6.40;5.50;;;;;;;;;;5010953;28;20190;-82
2023/10/25 04:19:40;;;;;;;5.23;4.43;;;;;;;;;;5005568;28;20725;-82
2023/10/25 04:22:07;;;;;;;5.97;5.37;;;;;;;;;;5003780;28;20188;-83
2023/10/25 04:24:34;;;;;;;5.90;5.27;;;;;;;;;;5027240;28;20187;-83
2023/10/25 04:27:03;;;;;;;6.60;5.67;;;;;;;;;;4994363;28;20679;-83
2023/10/25 04:29:31;;;;;;;7.53;5.50;;;;;;;;;;5006723;28;20206;-82
2023/10/25 04:31:57;;;;;;;5.63;4.90;;;;;;;;;;5003828;28;20175;-82
2023/10/25 04:34:23;;;;;;;6.10;5.50;;;;;;;;;;4991235;28;20202;-83
2023/10/25 04:36:49;;;;;;;7.63;5.50;;;;;;;;;;4987120;28;20215;-83
2023/10/25 04:39:16;;;;;;;5.67;5.07;;;;;;;;;;4983753;28;20223;-82
2023/10/25 04:41:42;;;;;;;7.10;6.40;;;;;;;;;;5006101;28;20673;-83
2023/10/25 04:44:08;;;;;;;7.60;6.80;;;;;;;;;;4995702;28;20187;-83
2023/10/25 04:46:34;;;;;;;7.23;6.40;;;;;;;;;;5013082;28;20218;-83
2023/10/25 04:49:00;;;;;;;7.97;6.90;;;;;;;;;;5008868;28;20245;-83
2023/10/25 04:51:27;;;;;;;7.27;5.70;;;;;;;;;;5006569;28;20249;-82
2023/10/25 04:53:53;;;;;;;7.10;6.07;;;;;;;;;;4975548;28;20198;-82
2023/10/25 04:56:23;;;;;;;8.87;6.20;;;;;;;;;;5009774;28;20203;-82
2023/10/25 04:58:49;;;;;;;6.53;5.83;;;;;;;;;;5009435;28;20199;-82
2023/10/25 05:01:15;;;;;;;6.87;5.70;;;;;;;;;;4994631;28;20175;-82
2023/10/25 05:03:44;;;;;;;6.67;5.77;;;;;;;;;;5008371;28;20188;-82
2023/10/25 05:06:11;;;;;;;5.77;5.17;;;;;;;;;;5007277;28;20195;-83
2023/10/25 05:08:37;;;;;;;6.83;5.77;;;;;;;;;;5005280;28;20187;-82
2023/10/25 05:11:04;;;;;;;6.47;5.73;;;;;;;;;;5012048;28;20193;-83
2023/10/25 05:13:31;;;;;;;6.43;5.70;;;;;;;;;;5009734;28;20188;-82
2023/10/25 05:15:57;;;;;;;6.97;6.20;;;;;;;;;;4994437;28;20207;-81
2023/10/25 05:18:24;;;;;;;7.70;5.63;;;;;;;;;;5011480;28;20195;-82
2023/10/25 05:20:55;;;;;;;7.70;6.07;;;;;;;;;;5007989;28;20175;-82
2023/10/25 05:23:21;;;;;;;6.17;5.57;;;;;;;;;;5007909;28;20195;-83
2023/10/25 05:25:47;;;;;;;7.67;6.20;;;;;;;;;;5006309;28;20190;-83
2023/10/25 05:28:13;;;;;;;7.93;6.40;;;;;;;;;;5010183;28;20179;-83
2023/10/25 05:30:39;;;;;;;7.43;5.93;;;;;;;;;;5006927;28;20226;-82
2023/10/25 05:33:07;;;;;;;15.67;13.77;;;;;;;;;;5009457;28;20202;-82
2023/10/25 05:35:33;;;;;;;10.33;9.10;;;;;;;;;;5017770;28;20298;-83
2023/10/25 05:38:00;;;;;;;8.77;7.33;;;;;;;;;;4994200;28;20282;-82
2023/10/25 05:40:26;;;;;;;9.03;6.73;;;;;;;;;;5000760;28;20221;-82
2023/10/25 05:42:54;;;;;;;10.00;7.23;;;;;;;;;;5024902;28;20197;-82
2023/10/25 05:45:20;;;;;;;7.73;5.93;;;;;;;;;;5014292;28;20273;-82
2023/10/25 05:47:46;;;;;;;7.43;6.17;;;;;;;;;;5008095;28;20254;-81
2023/10/25 05:50:12;;;;;;;7.13;5.57;;;;;;;;;;5007505;28;20278;-82
2023/10/25 05:52:45;;;;;;;7.10;5.47;;;;;;;;;;4995391;28;20193;-81
2023/10/25 05:55:14;;;;;;;7.00;5.60;;;;;;;;;;5003617;28;20655;-82
2023/10/25 05:57:41;;;;;;;6.70;5.60;;;;;;;;;;4992249;28;20187;-81
2023/10/25 06:00:07;;;;;;;9.67;5.60;;;;;;;;;;5009787;28;20203;-81
2023/10/25 06:02:34;;;;;;;6.63;5.30;;;;;;;;;;5007953;28;20186;-82
2023/10/25 06:05:00;;;;;;;6.50;4.57;;;;;;;;;;5009935;28;20274;-80
2023/10/25 06:07:27;;;;;;;6.00;5.00;;;;;;;;;;5009589;28;20345;-82
2023/10/25 06:09:55;;;;;;;5.37;4.20;;;;;;;;;;4999621;28;20707;-82
2023/10/25 06:12:22;;;;;;;5.33;4.60;;;;;;;;;;5006059;28;22106;-80
2023/10/25 06:14:49;;;;;;;5.90;4.33;;;;;;;;;;5005804;28;20187;-80
2023/10/25 06:17:15;;;;;;;5.27;4.27;;;;;;;;;;4993778;28;20183;-80
2023/10/25 06:19:41;;;;;;;4.73;4.27;;;;;;;;;;4988853;28;20214;-79
2023/10/25 06:22:07;;;;;;;6.30;4.83;;;;;;;;;;5008165;28;20191;-78
2023/10/25 06:24:33;;;;;;;5.37;4.17;;;;;;;;;;5006726;28;20636;-81
2023/10/25 06:26:59;;;;;;;5.23;4.60;;;;;;;;;;5028046;28;20187;-82
2023/10/25 06:29:26;;;;;;;6.27;4.83;;;;;;;;;;5009537;28;20219;-78
2023/10/25 06:31:52;;;;;;;4.90;4.30;;;;;;;;;;5012541;28;20561;-79
2023/10/25 06:34:22;;;;;;;5.43;4.50;;;;;;;;;;5012234;28;20213;-79
2023/10/25 06:36:48;;;;;;;7.73;6.13;;;;;;;;;;5008555;28;20289;-79
2023/10/25 06:39:14;;;;;;;6.50;5.50;;;;;;;;;;5005345;28;20200;-79
2023/10/25 06:41:42;;;;;;;4.70;4.17;;;;;;;;;;4990965;28;20187;-80
2023/10/25 06:44:08;;;;;;;6.00;4.70;;;;;;;;;;4991519;28;20250;-79
2023/10/25 06:46:35;;;;;;;5.03;4.10;;;;;;;;;;5010731;28;20253;-79
2023/10/25 06:49:01;;;;;;;4.93;4.23;;;;;;;;;;4991633;28;20226;-81
2023/10/25 06:51:27;;;;;;;5.73;4.80;;;;;;;;;;5013992;28;20179;-82
2023/10/25 06:53:54;;;;;;;5.17;4.63;;;;;;;;;;5011392;28;20278;-82
2023/10/25 06:56:20;;;;;;;5.30;4.50;;;;;;;;;;5009921;28;20212;-81
2023/10/25 06:58:47;;;;;;;5.07;4.23;;;;;;;;;;5001682;28;20210;-81
2023/10/25 07:01:13;;;;;;;4.93;4.40;;;;;;;;;;4993927;28;20217;-82
2023/10/25 07:03:44;;;;;;;5.37;4.20;;;;;;;;;;4998383;28;20264;-81
2023/10/25 07:06:11;;;;;;;4.30;3.90;;;;;;;;;;5014485;28;20217;-81
2023/10/25 07:08:37;;;;;;;4.33;3.90;;;;;;;;;;5029468;28;20195;-81
2023/10/25 07:11:03;;;;;;;4.83;4.33;;;;;;;;;;5012151;28;20179;-81
2023/10/25 07:13:30;;;;;;;5.33;4.20;;;;;;;;;;5014194;28;20186;-80
2023/10/25 07:15:56;;;;;;;4.77;4.00;;;;;;;;;;5006612;28;20698;-80
2023/10/25 07:18:23;;;;;;;4.70;3.93;;;;;;;;;;5009460;28;20189;-80
2023/10/25 07:20:50;;;;;;;4.43;4.03;;;;;;;;;;5011353;28;20211;-82
2023/10/25 07:23:17;;;;;;;4.40;4.00;;;;;;;;;;5011496;28;20199;-80
2023/10/25 07:25:44;;;;;;;4.90;3.67;;;;;;;;;;4996345;28;20241;-81
2023/10/25 07:28:10;;;;;;;4.07;3.67;;;;;;;;;;4999609;28;20238;-80
2023/10/25 07:30:36;;;;;;;3.77;3.47;;;;;;;;;;5010429;28;20238;-80
2023/10/25 07:33:02;;;;;;;5.40;4.30;;;;;;;;;;5011898;28;20195;-80
2023/10/25 07:35:29;;;;;;;4.00;3.60;;;;;;;;;;5005887;28;20216;-80
2023/10/25 07:37:55;;;;;;;4.10;3.70;;;;;;;;;;5007633;28;20643;-80
2023/10/25 07:40:21;;;;;;;3.90;3.50;;;;;;;;;;5019216;28;20294;-80
2023/10/25 07:42:47;;;;;;;4.03;3.73;;;;;;;;;;4992781;28;20217;-80
2023/10/25 07:45:13;;;;;;;4.70;4.20;;;;;;;;;;5007122;28;20226;-81
2023/10/25 07:47:40;;;;;;;3.87;3.23;;;;;;;;;;4994549;28;20205;-81
2023/10/25 07:50:06;;;;;;;3.90;3.60;;;;;;;;;;5009938;28;20245;-81
2023/10/25 07:52:35;;;;;;;3.60;3.30;;;;;;;;;;5012604;28;20271;-84
2023/10/25 07:55:03;;;;;;;3.93;3.53;;;;;;;;;;5007136;28;20210;-80
2023/10/25 07:57:30;;;;;;;3.80;3.50;;;;;;;;;;5005004;28;20188;-84
2023/10/25 07:59:56;;;;;;;3.23;2.93;;;;;;;;;;5008657;28;20248;-81
2023/10/25 08:02:22;;;;;;;3.40;3.10;;;;;;;;;;5010268;28;20296;-81
2023/10/25 08:04:48;;;;;;;3.43;3.13;;;;;;;;;;5009407;28;20183;-81
2023/10/25 08:07:15;;;;;;;3.80;3.50;;;;;;;;;;5011316;28;20184;-80
2023/10/25 08:09:46;;;;;;;4.07;3.67;;;;;;;;;;5010735;28;20679;-83
2023/10/25 08:12:13;;;;;;;3.50;3.20;;;;;;;;;;5009271;28;20824;-84
2023/10/25 08:14:40;;;;;;;4.00;3.60;;;;;;;;;;4989895;28;20889;-80
2023/10/25 08:17:06;;;;;;;4.30;3.90;;;;;;;;;;5008681;28;20191;-81
2023/10/25 08:19:32;;;;;;;4.60;4.20;;;;;;;;;;5007215;28;20223;-80
2023/10/25 08:21:58;;;;;;;3.90;3.40;;;;;;;;;;5025250;28;20183;-80
2023/10/25 08:24:24;;;;;;;4.00;3.60;;;;;;;;;;4991585;28;20523;-81
2023/10/25 08:26:52;;;;;;;3.50;3.20;;;;;;;;;;4998475;28;20609;-80
2023/10/25 08:29:18;;;;;;;3.40;3.10;;;;;;;;;;5009285;28;20207;-81
2023/10/25 08:31:47;;;;;;;3.87;3.57;;;;;;;;;;5010744;28;20717;-81
2023/10/25 08:34:13;;;;;;;4.50;4.10;;;;;;;;;;4992080;28;20616;-81
2023/10/25 08:36:40;;;;;;;5.57;3.87;;;;;;;;;;4992285;28;20211;-80
2023/10/25 08:39:06;;;;;;;3.60;3.30;;;;;;;;;;5008539;28;20290;-80
2023/10/25 08:41:35;;;;;;;3.83;3.23;;;;;;;;;;4992302;28;20241;-82
2023/10/25 08:44:03;;;;;;;7.57;5.40;;;;;;;;;;5010134;28;20286;-81
2023/10/25 08:46:30;;;;;;;4.57;3.80;;;;;;;;;;5006595;28;20203;-81
2023/10/25 08:48:57;;;;;;;4.83;3.50;;;;;;;;;;5020848;28;20705;-81
2023/10/25 08:51:24;;;;;;;3.40;2.97;;;;;;;;;;5011793;28;20266;-81
2023/10/25 08:53:52;;;;;;;3.47;2.70;;;;;;;;;;5010232;28;20194;-82
2023/10/25 08:56:19;;;;;;;3.07;2.77;;;;;;;;;;5007585;28;20307;-82
2023/10/25 08:58:45;;;;;;;4.50;3.53;;;;;;;;;;5013285;28;20203;-80
2023/10/25 09:01:11;;;;;;;3.40;3.10;;;;;;;;;;5013191;28;20191;-81
2023/10/25 09:03:38;;;;;;;4.57;3.90;;;;;;;;;;5011047;28;20203;-81
2023/10/25 09:06:06;;;;;;;4.43;2.73;;;;;;;;;;5009092;28;20193;-80
2023/10/25 09:08:32;;;;;;;4.33;2.77;;;;;;;;;;5011358;28;20198;-80
2023/10/25 09:11:08;;;;;;;3.80;3.33;;;;;;;;;;5012911;28;20219;-80
2023/10/25 09:13:35;;;;;;;3.00;2.40;;;;;;;;;;5010666;28;20194;-80
2023/10/25 09:16:05;;;;;;;3.07;2.70;;;;;;;;;;5007512;28;20686;-80
2023/10/25 09:18:33;;;;;;;3.70;1.90;;;;;;;;;;5007045;28;20187;-80
2023/10/25 09:20:59;;;;;;;2.60;2.40;;;;;;;;;;5012046;28;20187;-80
2023/10/25 09:23:25;;;;;;;2.60;2.33;;;;;;;;;;5011157;28;20179;-81
2023/10/25 09:25:51;;;;;;;3.90;2.27;;;;;;;;;;5006281;28;20230;-81
2023/10/25 09:28:28;;;;;;;3.70;2.20;;;;;;;;;;5005796;28;20183;-80
2023/10/25 09:30:55;;;;;;;2.57;2.30;;;;;;;;;;5026958;28;20241;-80
2023/10/25 09:33:22;;;;;;;2.90;2.50;;;;;;;;;;5007978;28;20559;-80
2023/10/25 09:35:48;;;;;;;2.47;2.27;;;;;;;;;;5007407;28;20211;-80
2023/10/25 09:38:14;;;;;;;2.30;2.10;;;;;;;;;;5004282;28;20590;-80
2023/10/25 09:40:43;;;;;;;3.60;2.80;;;;;;;;;;5006860;28;20201;-79
2023/10/25 09:43:14;;;;;;;3.00;2.53;;;;;;;;;;5013651;28;21869;-79
2023/10/25 09:45:41;;;;;;;2.60;2.30;;;;;;;;;;5012604;28;20280;-79
2023/10/25 09:48:11;;;;;;;3.87;3.07;;;;;;;;;;5010315;28;20933;-79
2023/10/25 09:50:38;;;;;;;4.50;2.97;;;;;;;;;;5011904;28;20586;-80
2023/10/25 09:53:24;;;;;;;6.07;3.33;;;;;;;;;;5009273;28;20187;-80
2023/10/25 09:55:54;;;;;;;5.87;2.80;;;;;;;;;;5008122;28;20238;-79
2023/10/25 09:58:25;;;;;;;4.87;3.17;;;;;;;;;;5004153;28;20300;-79
2023/10/25 10:00:51;;;;;;;4.60;3.20;;;;;;;;;;5009739;28;20210;-79
2023/10/25 10:03:34;;;;;;;4.23;3.00;;;;;;;;;;5009619;28;20189;-79
2023/10/25 10:06:10;;;;;;;3.77;2.90;;;;;;;;;;5020329;28;20551;-79
2023/10/25 10:08:41;;;;;;;6.83;3.30;;;;;;;;;;5008912;28;20534;-79
2023/10/25 10:11:12;;;;;;;5.33;3.00;;;;;;;;;;5006180;28;20262;-79
2023/10/25 10:13:38;;;;;;;5.87;2.80;;;;;;;;;;5009616;28;20190;-80
2023/10/25 10:16:05;;;;;;;4.77;3.10;;;;;;;;;;5002684;28;20211;-79
2023/10/25 10:18:33;;;;;;;6.43;3.30;;;;;;;;;;5006490;28;20187;-79
2023/10/25 10:21:06;;;;;;;10.27;4.40;;;;;;;;;;5005059;28;20202;-79
2023/10/25 10:23:39;;;;;;;9.40;4.30;;;;;;;;;;5008618;28;20230;-79
2023/10/25 10:26:07;;;;;;;7.43;4.00;;;;;;;;;;5005243;28;20187;-80
2023/10/25 10:28:42;;;;;;;7.50;3.43;;;;;;;;;;5010656;28;20210;-78
2023/10/25 10:31:09;;;;;;;3.63;2.80;;;;;;;;;;5004401;28;20553;-78
2023/10/25 10:33:46;;;;;;;3.50;2.60;;;;;;;;;;5007388;28;20191;-76
2023/10/25 10:36:23;;;;;;;3.47;2.80;;;;;;;;;;5006313;28;20210;-77
2023/10/25 10:39:08;;;;;;;4.63;2.77;;;;;;;;;;5007929;28;20256;-81
2023/10/25 10:41:34;;;;;;;4.47;3.00;;;;;;;;;;5005866;28;20189;-78
2023/10/25 10:44:00;;;;;;;4.53;3.10;;;;;;;;;;5007752;28;20187;-80
2023/10/25 10:46:28;;;;;;;3.20;2.47;;;;;;;;;;5010714;28;20243;-81
2023/10/25 10:48:56;;;;;;;4.27;3.00;;;;;;;;;;5008176;28;20212;-86
2023/10/25 10:51:22;;;;;;;3.93;2.70;;;;;;;;;;4982034;28;20194;-79
2023/10/25 10:53:49;;;;;;;6.20;2.70;;;;;;;;;;5010805;28;20722;-78
2023/10/25 10:56:15;;;;;;;2.63;2.10;;;;;;;;;;5012142;28;20215;-78
2023/10/25 10:58:41;;;;;;;3.03;2.33;;;;;;;;;;5012275;28;20204;-79
2023/10/25 11:01:08;;;;;;;2.97;2.20;;;;;;;;;;5011243;28;20210;-78
2023/10/25 11:03:37;;;;;;;2.67;1.97;;;;;;;;;;5008092;28;20186;-81
2023/10/25 11:06:06;;;;;;;4.10;2.50;;;;;;;;;;5012292;28;20187;-80
2023/10/25 11:08:32;;;;;;;2.70;2.27;;;;;;;;;;5008045;28;20188;-80
2023/10/25 11:10:59;;;;;;;2.40;2.20;;;;;;;;;;5012111;28;20187;-78
2023/10/25 11:13:25;;;;;;;2.80;2.30;;;;;;;;;;5026101;28;20183;-78
2023/10/25 11:16:12;;;;;;;2.40;2.20;;;;;;;;;;5011772;28;20195;-78
2023/10/25 11:18:38;;;;;;;3.30;2.50;;;;;;;;;;5010398;28;20203;-78
2023/10/25 11:21:04;;;;;;;3.60;2.57;;;;;;;;;;5027536;28;20543;-78
2023/10/25 11:23:31;;;;;;;2.50;2.30;;;;;;;;;;5012306;28;20246;-78
2023/10/25 11:25:57;;;;;;;2.90;2.37;;;;;;;;;;4994823;28;20231;-79
2023/10/25 11:28:23;;;;;;;3.47;2.33;;;;;;;;;;4980098;28;20199;-78
2023/10/25 11:30:53;;;;;;;2.40;2.17;;;;;;;;;;4991861;28;20263;-79
2023/10/25 11:33:19;;;;;;;3.33;1.70;;;;;;;;;;5023919;28;20278;-79
2023/10/25 11:35:46;;;;;;;3.53;2.10;;;;;;;;;;5012533;28;20237;-79
2023/10/25 11:38:12;;;;;;;2.83;2.00;;;;;;;;;;5011993;28;20187;-79
2023/10/25 11:40:43;;;;;;;2.50;2.10;;;;;;;;;;5011855;28;20199;-78
2023/10/25 11:43:10;;;;;;;2.10;1.90;;;;;;;;;;5011643;28;20182;-79
2023/10/25 11:45:37;;;;;;;4.53;2.70;;;;;;;;;;5010729;28;20568;-78
2023/10/25 11:48:04;;;;;;;2.83;2.23;;;;;;;;;;5014228;28;20276;-82
2023/10/25 11:50:30;;;;;;;2.10;1.90;;;;;;;;;;5024074;28;20207;-78
2023/10/25 11:52:58;;;;;;;1.93;1.73;;;;;;;;;;5007175;28;20187;-81
2023/10/25 11:55:25;;;;;;;3.00;2.10;;;;;;;;;;5005488;28;20600;-80
2023/10/25 11:57:52;;;;;;;2.73;2.00;;;;;;;;;;5012449;28;20180;-80
2023/10/25 12:00:18;;;;;;;1.93;1.57;;;;;;;;;;5007349;28;20230;-81
2023/10/25 12:02:44;;;;;;;2.00;1.70;;;;;;;;;;5015002;28;20195;-80
2023/10/25 12:05:11;;;;;;;2.13;1.80;;;;;;;;;;5013801;28;20191;-81
2023/10/25 12:07:37;;;;;;;2.33;1.80;;;;;;;;;;5019196;28;20195;-80
2023/10/25 12:10:06;;;;;;;3.87;2.10;;;;;;;;;;5011600;28;20207;-80
2023/10/25 12:12:33;;;;;;;2.07;1.87;;;;;;;;;;5011489;28;20183;-80
2023/10/25 12:14:59;;;;;;;2.03;1.83;;;;;;;;;;5012280;28;20186;-82
2023/10/25 12:17:25;;;;;;;3.53;2.30;;;;;;;;;;4994538;28;20642;-81
2023/10/25 12:19:51;;;;;;;2.43;2.20;;;;;;;;;;5014204;28;20574;-80
2023/10/25 12:22:19;;;;;;;3.00;2.30;;;;;;;;;;5011986;28;20249;-81
2023/10/25 12:24:48;;;;;;;2.97;2.50;;;;;;;;;;5011954;28;20179;-81
2023/10/25 12:27:15;;;;;;;2.60;2.40;;;;;;;;;;5010546;28;20199;-81
2023/10/25 12:29:41;;;;;;;2.60;2.30;;;;;;;;;;5027032;28;20663;-82
2023/10/25 12:32:08;;;;;;;2.73;2.20;;;;;;;;;;5009478;28;20884;-81
2023/10/25 12:34:34;;;;;;;3.67;3.00;;;;;;;;;;5011202;28;20297;-81
2023/10/25 12:37:00;;;;;;;4.03;2.50;;;;;;;;;;5008484;28;20697;-81
2023/10/25 12:39:26;;;;;;;4.83;2.57;;;;;;;;;;5009942;28;20289;-81
2023/10/25 12:41:52;;;;;;;2.70;2.50;;;;;;;;;;4994812;28;20191;-81
2023/10/25 12:44:19;;;;;;;2.30;2.00;;;;;;;;;;4992601;28;20182;-81
2023/10/25 12:46:45;;;;;;;2.97;2.10;;;;;;;;;;5007718;28;20178;-81
2023/10/25 12:49:15;;;;;;;2.30;2.10;;;;;;;;;;5012243;28;20229;-82
2023/10/25 12:51:42;;;;;;;2.90;2.60;;;;;;;;;;5009449;28;20214;-81
2023/10/25 12:54:09;;;;;;;3.77;2.40;;;;;;;;;;5009491;28;20238;-82
2023/10/25 12:56:37;;;;;;;2.93;2.30;;;;;;;;;;4984975;28;20281;-82
2023/10/25 12:59:03;;;;;;;2.40;2.20;;;;;;;;;;5015618;28;20267;-82
2023/10/25 13:01:29;;;;;;;2.77;2.20;;;;;;;;;;5011962;28;20211;-82
2023/10/25 13:03:56;;;;;;;3.20;2.40;;;;;;;;;;5010028;28;20184;-81
2023/10/25 13:06:25;;;;;;;3.73;2.70;;;;;;;;;;4994374;28;20199;-81
2023/10/25 13:08:51;;;;;;;3.13;2.40;;;;;;;;;;5009755;28;20687;-81
2023/10/25 13:11:17;;;;;;;3.50;2.50;;;;;;;;;;5003776;28;20655;-81
2023/10/25 13:13:44;;;;;;;2.40;2.20;;;;;;;;;;4991438;28;20183;-82
2023/10/25 13:16:10;;;;;;;2.23;2.03;;;;;;;;;;5016006;28;20207;-81
2023/10/25 13:18:36;;;;;;;3.17;2.17;;;;;;;;;;5002820;28;20197;-82
2023/10/25 13:21:03;;;;;;;2.63;2.30;;;;;;;;;;5011606;28;20209;-82
2023/10/25 13:23:29;;;;;;;3.07;2.77;;;;;;;;;;4974460;28;20180;-82
2023/10/25 13:25:56;;;;;;;7.10;4.40;;;;;;;;;;4990358;28;20186;-81
2023/10/25 13:28:22;;;;;;;6.57;3.80;;;;;;;;;;5008517;28;20292;-82
2023/10/25 13:30:49;;;;;;;9.50;5.50;;;;;;;;;;4993576;28;20271;-82
2023/10/25 13:33:15;;;;;;;6.50;4.60;;;;;;;;;;5004765;28;20290;-81
2023/10/25 13:35:41;;;;;;;4.10;2.93;;;;;;;;;;5011473;28;20213;-82
2023/10/25 13:38:08;;;;;;;3.53;2.43;;;;;;;;;;5025674;28;20184;-82
2023/10/25 13:40:35;;;;;;;4.00;2.47;;;;;;;;;;5007992;28;20582;-82
2023/10/25 13:43:02;;;;;;;12.80;10.37;;;;;;;;;;4994571;28;20788;-82
2023/10/25 13:45:28;;;;;;;23.23;15.10;;;;;;;;;;4999749;28;20179;-81
2023/10/25 13:47:54;;;;;;;5.33;4.40;;;;;;;;;;5016307;28;20305;-82
2023/10/25 13:50:21;;;;;;;3.17;2.60;;;;;;;;;;4996714;28;20210;-81
2023/10/25 13:52:48;;;;;;;4.23;2.10;;;;;;;;;;5013521;28;20183;-82
2023/10/25 13:55:14;;;;;;;3.77;2.20;;;;;;;;;;5010145;28;20706;-81
2023/10/25 13:57:40;;;;;;;1.60;1.50;;;;;;;;;;4995477;28;20249;-82
2023/10/25 14:00:10;;;;;;;1.97;1.70;;;;;;;;;;5006983;28;20278;-82
2023/10/25 14:02:40;;;;;;;2.00;1.60;;;;;;;;;;5011379;28;20175;-82
2023/10/25 14:05:06;;;;;;;1.67;1.57;;;;;;;;;;4994950;28;20183;-82
2023/10/25 14:07:33;;;;;;;2.73;1.73;;;;;;;;;;5011311;28;20317;-82
2023/10/25 14:09:59;;;;;;;2.40;2.20;;;;;;;;;;4981247;28;20667;-81
2023/10/25 14:12:28;;;;;;;7.40;4.70;;;;;;;;;;5007654;28;20234;-82
2023/10/25 14:14:54;;;;;;;4.33;3.07;;;;;;;;;;5011058;28;20183;-80
2023/10/25 14:17:20;;;;;;;3.10;2.60;;;;;;;;;;5009303;28;20214;-81
2023/10/25 14:19:46;;;;;;;2.90;2.10;;;;;;;;;;5011169;28;20215;-81
2023/10/25 14:22:12;;;;;;;2.80;1.90;;;;;;;;;;5007940;28;20536;-79
2023/10/25 14:24:39;;;;;;;2.80;2.30;;;;;;;;;;5009504;28;20229;-79
2023/10/25 14:27:05;;;;;;;2.80;1.97;;;;;;;;;;5009974;28;20549;-80
2023/10/25 14:29:31;;;;;;;3.90;2.70;;;;;;;;;;5006417;28;20219;-79
2023/10/25 14:31:57;;;;;;;3.50;2.17;;;;;;;;;;5002192;28;20237;-79
2023/10/25 14:34:23;;;;;;;2.50;2.00;;;;;;;;;;5002081;28;20188;-79
2023/10/25 14:36:49;;;;;;;5.17;3.30;;;;;;;;;;5004835;28;20209;-79
2023/10/25 14:39:16;;;;;;;4.07;2.67;;;;;;;;;;5003944;28;20207;-79
2023/10/25 14:41:42;;;;;;;4.47;2.90;;;;;;;;;;5015802;28;20190;-79